Time;durP1;ratioP1;P1;durP2;ratioP2;P2;SDS_P1;SDS_P2;PMS_P1;PMS_P2;Temp;Humidity;BMP_temperature;BMP_pressure;BME280_temperature;BME280_humidity;BME280_pressure;Samples;Min_cycle;Max_cycle;Signal;HPM_P1;HPM_P2
2021/03/19 00:00:58;;;;;;;;;;;19.80;55.30;;;;;;5091846;28;1365;-67
2021/03/19 00:03:23;;;;;;;;;;;19.80;55.30;;;;;;5078395;28;1183;-67
2021/03/19 00:05:49;;;;;;;;;;;19.80;55.40;;;;;;5071481;28;1482;-67
2021/03/19 00:08:14;;;;;;;;;;;19.80;55.40;;;;;;5070218;28;1331;-66
2021/03/19 00:10:40;;;;;;;;;;;19.80;55.40;;;;;;5071534;28;1971;-67
2021/03/19 00:13:08;;;;;;;;;;;19.80;55.40;;;;;;5070869;28;1269;-67
2021/03/19 00:15:33;;;;;;;;;;;19.80;55.40;;;;;;5070121;28;1126;-67
2021/03/19 00:17:59;;;;;;;;;;;19.80;55.40;;;;;;5065886;28;1328;-67
2021/03/19 00:20:24;;;;;;;;;;;19.70;55.40;;;;;;5067497;28;1276;-67
2021/03/19 00:22:49;;;;;;;;;;;19.80;55.40;;;;;;5071313;28;1293;-67
2021/03/19 00:25:15;;;;;;;;;;;19.70;55.40;;;;;;5069740;28;1026;-67
2021/03/19 00:27:40;;;;;;;;;;;19.70;55.40;;;;;;5070232;28;1087;-67
2021/03/19 00:30:07;;;;;;;;;;;19.70;55.40;;;;;;5070793;28;1952;-67
2021/03/19 00:32:32;;;;;;;;;;;19.70;55.40;;;;;;5071925;28;1221;-67
2021/03/19 00:34:58;;;;;;;;;;;19.70;55.50;;;;;;5070655;28;1122;-67
2021/03/19 00:37:23;;;;;;;;;;;19.70;55.50;;;;;;5070181;28;1315;-68
2021/03/19 00:39:48;;;;;;;;;;;19.70;55.50;;;;;;5071260;28;1218;-67
2021/03/19 00:42:14;;;;;;;;;;;19.70;55.50;;;;;;5070669;28;1318;-67
2021/03/19 00:44:39;;;;;;;;;;;19.70;55.50;;;;;;5070660;28;1264;-67
2021/03/19 00:47:05;;;;;;;;;;;19.70;55.50;;;;;;5068600;28;1267;-67
2021/03/19 00:49:32;;;;;;;;;;;19.70;55.50;;;;;;5069072;28;1902;-67
2021/03/19 00:51:57;;;;;;;;;;;19.70;55.50;;;;;;5069588;28;1405;-67
2021/03/19 00:54:23;;;;;;;;;;;19.70;55.50;;;;;;5071104;28;1285;-67
2021/03/19 00:56:48;;;;;;;;;;;19.60;55.50;;;;;;5070438;28;1225;-67
2021/03/19 00:59:13;;;;;;;;;;;19.70;55.50;;;;;;5085762;28;1261;-67
2021/03/19 01:01:39;;;;;;;;;;;19.70;55.60;;;;;;5091082;28;1358;-67
2021/03/19 01:04:04;;;;;;;;;;;19.70;55.60;;;;;;5077441;28;1106;-67
2021/03/19 01:06:30;;;;;;;;;;;19.70;55.60;;;;;;5093855;28;1258;-67
2021/03/19 01:08:56;;;;;;;;;;;19.70;55.60;;;;;;5093079;28;1909;-67
2021/03/19 01:11:21;;;;;;;;;;;19.60;55.60;;;;;;5094937;28;1361;-67
2021/03/19 01:13:46;;;;;;;;;;;19.60;55.60;;;;;;5094126;28;1406;-68
2021/03/19 01:16:12;;;;;;;;;;;19.70;55.60;;;;;;5094523;28;1052;-67
2021/03/19 01:18:37;;;;;;;;;;;19.60;55.60;;;;;;5084764;28;1439;-67
2021/03/19 01:21:03;;;;;;;;;;;19.60;55.60;;;;;;5074021;28;1098;-67
2021/03/19 01:23:28;;;;;;;;;;;19.60;55.60;;;;;;5074850;28;1354;-67
2021/03/19 01:25:55;;;;;;;;;;;19.60;55.60;;;;;;5074184;28;1253;-67
2021/03/19 01:28:20;;;;;;;;;;;19.60;55.60;;;;;;5071430;28;1149;-67
2021/03/19 01:30:46;;;;;;;;;;;19.60;55.60;;;;;;5073023;28;1922;-67
2021/03/19 01:33:11;;;;;;;;;;;19.60;55.60;;;;;;5073951;28;1508;-67
2021/03/19 01:35:37;;;;;;;;;;;19.60;55.70;;;;;;5074666;28;1510;-67
2021/03/19 01:38:03;;;;;;;;;;;19.60;55.70;;;;;;5072029;28;1954;-68
2021/03/19 01:40:29;;;;;;;;;;;19.60;55.70;;;;;;5074065;28;1236;-68
2021/03/19 01:42:58;;;;;;;;;;;19.60;55.70;;;;;;5073011;28;1483;-67
2021/03/19 01:45:42;;;;;;;;;;;19.60;55.70;;;;;;5074142;28;1313;-67
2021/03/19 01:48:26;;;;;;;;;;;19.60;55.70;;;;;;5072873;28;1311;-67
2021/03/19 01:51:10;;;;;;;;;;;19.60;55.70;;;;;;5073963;28;1922;-67
2021/03/19 01:53:54;;;;;;;;;;;19.60;55.70;;;;;;5073674;28;1356;-67
2021/03/19 01:56:38;;;;;;;;;;;19.60;55.80;;;;;;5086335;28;1073;-67
2021/03/19 01:59:22;;;;;;;;;;;19.60;55.80;;;;;;5067267;28;1325;-67
2021/03/19 02:02:06;;;;;;;;;;;19.60;55.80;;;;;;5073753;28;1263;-67
2021/03/19 02:04:50;;;;;;;;;;;19.50;55.70;;;;;;5073696;28;1257;-67
2021/03/19 02:07:34;;;;;;;;;;;19.50;55.70;;;;;;5072858;28;1411;-67
2021/03/19 02:10:18;;;;;;;;;;;19.50;55.70;;;;;;5071896;28;1901;-67
2021/03/19 02:13:03;;;;;;;;;;;19.50;55.80;;;;;;5073264;28;1270;-67
2021/03/19 02:15:47;;;;;;;;;;;19.50;55.80;;;;;;5075516;28;1125;-67
2021/03/19 02:18:31;;;;;;;;;;;19.50;55.80;;;;;;5087479;28;1315;-67
2021/03/19 02:21:15;;;;;;;;;;;19.50;55.80;;;;;;5061240;28;1358;-67
2021/03/19 02:23:59;;;;;;;;;;;19.50;55.80;;;;;;5072257;28;1296;-67
2021/03/19 02:26:43;;;;;;;;;;;19.50;55.80;;;;;;5073201;28;1361;-67
2021/03/19 02:29:27;;;;;;;;;;;19.50;55.80;;;;;;5072060;28;1894;-67
2021/03/19 02:32:06;;;;;;;;;;;19.50;55.80;;;;;;5073221;28;1300;-67
2021/03/19 02:34:46;;;;;;;;;;;19.50;55.80;;;;;;5071389;28;1272;-67
2021/03/19 02:37:13;;;;;;;;;;;19.50;55.80;;;;;;5072567;28;1364;-67
2021/03/19 02:39:38;;;;;;;;;;;19.50;55.80;;;;;;5071200;28;1340;-67
2021/03/19 02:42:04;;;;;;;;;;;19.50;55.80;;;;;;5071147;28;1396;-67
2021/03/19 02:44:29;;;;;;;;;;;19.50;55.80;;;;;;5071152;28;1310;-67
2021/03/19 02:46:55;;;;;;;;;;;19.50;55.80;;;;;;5071538;28;1377;-68
2021/03/19 02:49:20;;;;;;;;;;;19.50;55.80;;;;;;5072809;28;1965;-67
2021/03/19 02:51:46;;;;;;;;;;;19.50;55.80;;;;;;5087543;28;1722;-67
2021/03/19 02:54:11;;;;;;;;;;;19.50;55.90;;;;;;5070488;28;1258;-67
2021/03/19 02:56:37;;;;;;;;;;;19.50;55.90;;;;;;5067723;28;1285;-67
2021/03/19 02:59:02;;;;;;;;;;;19.50;55.80;;;;;;5071063;28;1215;-67
2021/03/19 03:01:28;;;;;;;;;;;19.50;55.90;;;;;;5064111;28;1369;-67
2021/03/19 03:03:53;;;;;;;;;;;19.50;55.90;;;;;;5070055;28;1099;-67
2021/03/19 03:06:19;;;;;;;;;;;19.50;55.90;;;;;;5071129;28;1222;-67
2021/03/19 03:08:44;;;;;;;;;;;19.50;55.90;;;;;;5066909;28;1315;-68
2021/03/19 03:11:09;;;;;;;;;;;19.50;55.90;;;;;;5066685;28;1934;-67
2021/03/19 03:13:35;;;;;;;;;;;19.50;55.90;;;;;;5069557;28;1167;-67
2021/03/19 03:16:01;;;;;;;;;;;19.50;55.90;;;;;;5068144;28;1238;-67
2021/03/19 03:18:27;;;;;;;;;;;19.50;55.90;;;;;;5061007;28;1399;-67
2021/03/19 03:20:54;;;;;;;;;;;19.50;55.90;;;;;;5071989;28;1281;-67
2021/03/19 03:23:20;;;;;;;;;;;19.50;55.90;;;;;;5071624;28;1357;-67
2021/03/19 03:25:45;;;;;;;;;;;19.50;55.90;;;;;;5067896;28;920;-67
2021/03/19 03:28:11;;;;;;;;;;;19.50;55.90;;;;;;5065140;28;1087;-67
2021/03/19 03:30:41;;;;;;;;;;;19.50;55.90;;;;;;5045070;28;1969;-67
2021/03/19 03:33:06;;;;;;;;;;;19.40;55.90;;;;;;5053154;28;1212;-67
2021/03/19 03:35:32;;;;;;;;;;;19.40;55.90;;;;;;5081374;28;1403;-67
2021/03/19 03:37:57;;;;;;;;;;;19.40;55.90;;;;;;5092375;28;1321;-67
2021/03/19 03:40:27;;;;;;;;;;;19.40;55.90;;;;;;5092248;28;1736;-67
2021/03/19 03:42:53;;;;;;;;;;;19.40;55.90;;;;;;5079601;28;1282;-67
2021/03/19 03:45:18;;;;;;;;;;;19.40;55.90;;;;;;5083374;28;1003;-67
2021/03/19 03:47:44;;;;;;;;;;;19.50;55.90;;;;;;5087122;28;1279;-67
2021/03/19 03:50:10;;;;;;;;;;;19.40;55.80;;;;;;5072458;28;2018;-67
2021/03/19 03:52:36;;;;;;;;;;;19.50;55.80;;;;;;5071462;28;1319;-67
2021/03/19 03:55:01;;;;;;;;;;;19.50;55.80;;;;;;5071337;28;1304;-66
2021/03/19 03:57:27;;;;;;;;;;;19.50;55.70;;;;;;5071696;28;1224;-66
2021/03/19 03:59:52;;;;;;;;;;;19.50;55.70;;;;;;5072329;28;1323;-66
2021/03/19 04:02:21;;;;;;;;;;;19.50;55.60;;;;;;5070202;28;1365;-66
2021/03/19 04:04:48;;;;;;;;;;;19.50;55.60;;;;;;5091632;28;968;-66
2021/03/19 04:07:13;;;;;;;;;;;19.60;55.60;;;;;;5090623;28;1383;-66
2021/03/19 04:09:39;;;;;;;;;;;19.60;55.60;;;;;;5092378;28;1894;-66
2021/03/19 04:12:05;;;;;;;;;;;19.60;55.50;;;;;;5092039;28;1318;-66
2021/03/19 04:14:30;;;;;;;;;;;19.60;55.50;;;;;;5092446;28;1283;-66
2021/03/19 04:16:58;;;;;;;;;;;19.60;55.40;;;;;;5092016;28;1320;-67
2021/03/19 04:19:23;;;;;;;;;;;19.70;55.40;;;;;;5075881;28;1169;-67
2021/03/19 04:21:49;;;;;;;;;;;19.80;55.30;;;;;;5071178;28;1344;-66
2021/03/19 04:24:14;;;;;;;;;;;19.90;55.10;;;;;;5072598;28;1289;-67
2021/03/19 04:26:40;;;;;;;;;;;20.00;54.90;;;;;;5072237;28;1271;-67
2021/03/19 04:29:05;;;;;;;;;;;20.10;54.70;;;;;;5071359;28;1898;-66
2021/03/19 04:31:31;;;;;;;;;;;20.20;54.50;;;;;;5071606;28;1275;-66
2021/03/19 04:33:56;;;;;;;;;;;20.30;54.30;;;;;;5072232;28;1253;-67
2021/03/19 04:36:32;;;;;;;;;;;20.40;54.10;;;;;;5070690;28;1068;-67
2021/03/19 04:38:59;;;;;;;;;;;20.50;53.90;;;;;;5072999;28;1265;-67
2021/03/19 04:41:25;;;;;;;;;;;20.60;53.70;;;;;;5075144;28;1361;-68
2021/03/19 04:43:51;;;;;;;;;;;20.70;53.50;;;;;;5075537;28;1356;-68
2021/03/19 04:46:16;;;;;;;;;;;20.70;53.30;;;;;;5074675;28;1282;-68
2021/03/19 04:48:41;;;;;;;;;;;20.80;53.20;;;;;;5084044;28;1056;-68
2021/03/19 04:51:07;;;;;;;;;;;20.80;53.00;;;;;;5096529;28;1957;-68
2021/03/19 04:53:32;;;;;;;;;;;20.90;53.00;;;;;;5087470;28;1101;-68
2021/03/19 04:55:58;;;;;;;;;;;20.90;52.80;;;;;;5088329;28;1272;-68
2021/03/19 04:58:23;;;;;;;;;;;21.00;52.70;;;;;;5074141;28;1339;-67
2021/03/19 05:00:48;;;;;;;;;;;21.00;52.60;;;;;;5075329;28;1305;-67
2021/03/19 05:03:14;;;;;;;;;;;21.10;52.60;;;;;;5082470;28;1266;-67
2021/03/19 05:05:39;;;;;;;;;;;21.10;52.50;;;;;;5095385;28;1271;-67
2021/03/19 05:08:05;;;;;;;;;;;21.10;52.50;;;;;;5094069;28;1339;-67
2021/03/19 05:10:32;;;;;;;;;;;21.10;52.40;;;;;;5095506;28;1901;-67
2021/03/19 05:12:57;;;;;;;;;;;21.20;52.40;;;;;;5094766;28;1610;-67
2021/03/19 05:15:23;;;;;;;;;;;21.20;52.30;;;;;;5094566;28;1379;-67
2021/03/19 05:17:49;;;;;;;;;;;21.30;52.30;;;;;;5092308;28;1078;-67
2021/03/19 05:20:14;;;;;;;;;;;21.30;52.20;;;;;;5075610;28;1178;-67
2021/03/19 05:22:40;;;;;;;;;;;21.30;52.20;;;;;;5074732;28;1354;-68
2021/03/19 05:25:06;;;;;;;;;;;21.30;52.10;;;;;;5075379;28;1190;-69
2021/03/19 05:27:32;;;;;;;;;;;21.40;52.10;;;;;;5074231;28;1295;-68
2021/03/19 05:29:57;;;;;;;;;;;21.40;52.10;;;;;;5074953;28;1894;-68
2021/03/19 05:32:23;;;;;;;;;;;21.40;52.00;;;;;;5074792;28;1282;-67
2021/03/19 05:34:48;;;;;;;;;;;21.40;52.00;;;;;;5075241;28;1289;-68
2021/03/19 05:37:14;;;;;;;;;;;21.40;52.00;;;;;;5074626;28;1336;-68
2021/03/19 05:39:39;;;;;;;;;;;21.40;51.90;;;;;;5074147;28;1270;-68
2021/03/19 05:42:12;;;;;;;;;;;21.40;51.90;;;;;;5074770;28;1321;-67
2021/03/19 05:44:39;;;;;;;;;;;21.50;51.90;;;;;;5073975;28;1326;-67
2021/03/19 05:47:04;;;;;;;;;;;21.50;51.90;;;;;;5073069;28;1428;-67
2021/03/19 05:49:30;;;;;;;;;;;21.50;51.90;;;;;;5072238;28;1957;-67
2021/03/19 05:52:00;;;;;;;;;;;21.50;51.90;;;;;;5074811;28;1365;-67
2021/03/19 05:54:26;;;;;;;;;;;21.50;51.80;;;;;;5074611;28;1314;-67
2021/03/19 05:57:04;;;;;;;;;;;21.50;51.80;;;;;;5073436;28;1268;-68
2021/03/19 05:59:32;;;;;;;;;;;21.60;51.80;;;;;;5074304;28;1307;-68
2021/03/19 06:01:58;;;;;;;;;;;21.60;51.80;;;;;;5073542;28;1280;-67
2021/03/19 06:04:25;;;;;;;;;;;21.60;51.80;;;;;;5089213;28;1420;-67
2021/03/19 06:06:52;;;;;;;;;;;21.60;51.80;;;;;;5074560;28;1320;-68
2021/03/19 06:09:21;;;;;;;;;;;21.60;51.80;;;;;;5072573;28;1953;-67
2021/03/19 06:11:50;;;;;;;;;;;21.60;51.80;;;;;;5072927;28;1356;-68
2021/03/19 06:14:16;;;;;;;;;;;21.60;51.80;;;;;;5074797;28;1293;-68
2021/03/19 06:16:43;;;;;;;;;;;21.60;51.80;;;;;;5074243;28;1266;-67
2021/03/19 06:19:29;;;;;;;;;;;21.60;51.80;;;;;;5072031;28;1417;-68
2021/03/19 06:22:14;;;;;;;;;;;21.60;51.80;;;;;;5092951;28;1369;-68
2021/03/19 06:24:39;;;;;;;;;;;21.60;51.80;;;;;;5094578;28;1278;-68
2021/03/19 06:27:12;;;;;;;;;;;21.60;51.80;;;;;;5087487;28;1427;-68
2021/03/19 06:29:45;;;;;;;;;;;21.60;51.90;;;;;;5085744;28;1961;-68
2021/03/19 06:32:24;;;;;;;;;;;21.60;51.90;;;;;;5061037;28;1295;-68
2021/03/19 06:34:54;;;;;;;;;;;21.60;52.00;;;;;;5072838;28;1339;-68
2021/03/19 06:37:39;;;;;;;;;;;21.50;51.90;;;;;;5080891;28;1363;-68
2021/03/19 06:40:21;;;;;;;;;;;21.50;52.00;;;;;;5093239;28;1118;-68
2021/03/19 06:42:47;;;;;;;;;;;21.50;52.00;;;;;;5092030;28;1317;-68
2021/03/19 06:45:15;;;;;;;;;;;21.50;52.10;;;;;;5080332;28;994;-68
2021/03/19 06:47:49;;;;;;;;;;;21.50;52.10;;;;;;5092747;28;1269;-68
2021/03/19 06:50:24;;;;;;;;;;;21.50;52.20;;;;;;5085014;28;1901;-68
2021/03/19 06:52:49;;;;;;;;;;;21.50;52.30;;;;;;5090060;28;1358;-68
2021/03/19 06:55:35;;;;;;;;;;;21.40;52.30;;;;;;5093848;28;1141;-68
2021/03/19 06:58:00;;;;;;;;;;;21.40;52.30;;;;;;5072388;28;1336;-68
2021/03/19 07:00:33;;;;;;;;;;;21.40;52.40;;;;;;5072949;28;1265;-68
2021/03/19 07:03:07;;;;;;;;;;;21.40;52.40;;;;;;5061930;28;1323;-68
2021/03/19 07:05:50;;;;;;;;;;;21.30;52.50;;;;;;5072867;28;1305;-67
2021/03/19 07:08:48;;;;;;;;;;;21.30;52.50;;;;;;5071279;28;1110;-68
2021/03/19 07:11:25;;;;;;;;;;;21.30;52.60;;;;;;5060760;28;1980;-68
2021/03/19 07:13:57;;;;;;;;;;;21.30;52.60;;;;;;5073250;28;1119;-68
2021/03/19 07:16:26;;;;;;;;;;;21.30;52.70;;;;;;5072878;28;1288;-68
2021/03/19 07:19:11;;;;;;;;;;;21.20;52.70;;;;;;5068637;28;1384;-66
2021/03/19 07:21:43;;;;;;;;;;;21.20;52.70;;;;;;5093372;28;1279;-66
2021/03/19 07:24:28;;;;;;;;;;;21.20;52.80;;;;;;5092149;28;1350;-67
2021/03/19 07:26:54;;;;;;;;;;;21.20;52.80;;;;;;5092878;28;1105;-66
2021/03/19 07:29:49;;;;;;;;;;;21.20;52.80;;;;;;5091158;28;1902;-66
2021/03/19 07:32:17;;;;;;;;;;;21.20;52.90;;;;;;5087962;28;1317;-67
2021/03/19 07:34:50;;;;;;;;;;;21.10;52.90;;;;;;5092783;28;1299;-66
2021/03/19 07:37:18;;;;;;;;;;;21.10;53.00;;;;;;5091907;28;1328;-68
2021/03/19 07:39:43;;;;;;;;;;;21.10;53.00;;;;;;5093005;28;1083;-67
2021/03/19 07:42:08;;;;;;;;;;;21.10;53.10;;;;;;5092700;28;1357;-67
2021/03/19 07:44:39;;;;;;;;;;;21.10;53.10;;;;;;5092849;28;1330;-67
2021/03/19 07:47:23;;;;;;;;;;;21.00;53.10;;;;;;5091037;28;1316;-67
2021/03/19 07:50:04;;;;;;;;;;;21.00;53.10;;;;;;5092754;28;1972;-68
2021/03/19 07:52:48;;;;;;;;;;;21.00;53.20;;;;;;5084995;28;1992;-69
2021/03/19 07:55:25;;;;;;;;;;;21.00;53.20;;;;;;5071089;28;1055;-68
2021/03/19 07:57:56;;;;;;;;;;;20.90;53.80;;;;;;5073838;28;1142;-68
2021/03/19 08:00:25;;;;;;;;;;;20.90;53.30;;;;;;5091736;28;1400;-67
2021/03/19 08:02:50;;;;;;;;;;;20.90;53.40;;;;;;5083930;28;1380;-67
2021/03/19 08:05:30;;;;;;;;;;;20.90;53.40;;;;;;5070862;28;1298;-67
2021/03/19 08:08:01;;;;;;;;;;;20.90;53.40;;;;;;5070488;28;1299;-67
2021/03/19 08:10:45;;;;;;;;;;;20.80;53.40;;;;;;5072048;28;1961;-67
2021/03/19 08:13:29;;;;;;;;;;;20.80;53.50;;;;;;5072296;28;1289;-67
2021/03/19 08:16:06;;;;;;;;;;;20.80;54.10;;;;;;5072220;28;1290;-67
2021/03/19 08:18:55;;;;;;;;;;;20.80;53.60;;;;;;5065327;28;1332;-67
2021/03/19 08:21:25;;;;;;;;;;;20.80;53.60;;;;;;5082064;28;1298;-67
2021/03/19 08:24:02;;;;;;;;;;;20.80;53.70;;;;;;5090954;28;1336;-68
2021/03/19 08:26:29;;;;;;;;;;;20.80;53.70;;;;;;5092309;28;1286;-67
2021/03/19 08:28:58;;;;;;;;;;;20.80;53.80;;;;;;5090536;28;1285;-68
2021/03/19 08:31:26;;;;;;;;;;;20.70;53.70;;;;;;5091156;28;1890;-67
2021/03/19 08:34:07;;;;;;;;;;;20.70;53.80;;;;;;5092403;28;1303;-67
2021/03/19 08:36:38;;;;;;;;;;;20.70;53.80;;;;;;5092067;28;1289;-68
2021/03/19 08:39:06;;;;;;;;;;;20.70;53.80;;;;;;5092177;28;1665;-67
2021/03/19 08:41:36;;;;;;;;;;;20.70;53.80;;;;;;5090969;28;1484;-68
2021/03/19 08:44:03;;;;;;;;;;;20.70;53.90;;;;;;5090903;28;1296;-68
2021/03/19 08:46:34;;;;;;;;;;;20.70;53.90;;;;;;5090638;28;1303;-67
2021/03/19 08:49:32;;;;;;;;;;;20.70;53.90;;;;;;5090738;28;1074;-67
2021/03/19 08:51:57;;;;;;;;;;;20.60;53.90;;;;;;5067850;28;1684;-68
2021/03/19 08:54:22;;;;;;;;;;;20.60;54.00;;;;;;5091157;28;1298;-67
2021/03/19 08:56:49;;;;;;;;;;;20.60;54.00;;;;;;5082300;28;1418;-67
2021/03/19 08:59:29;;;;;;;;;;;20.60;54.00;;;;;;5070927;28;1272;-67
2021/03/19 09:01:55;;;;;;;;;;;20.60;54.10;;;;;;5070804;28;1344;-67
2021/03/19 09:04:40;;;;;;;;;;;20.60;54.10;;;;;;5088584;28;1088;-67
2021/03/19 09:07:24;;;;;;;;;;;20.60;54.10;;;;;;5091966;28;1063;-68
2021/03/19 09:09:50;;;;;;;;;;;20.60;54.10;;;;;;5091005;28;1960;-67
2021/03/19 09:12:16;;;;;;;;;;;20.60;54.20;;;;;;5090350;28;1275;-68
2021/03/19 09:14:43;;;;;;;;;;;20.50;54.10;;;;;;5088985;28;1146;-67
2021/03/19 09:17:13;;;;;;;;;;;20.50;54.10;;;;;;5088700;28;1262;-68
2021/03/19 09:19:43;;;;;;;;;;;20.50;54.20;;;;;;5072664;28;1102;-67
2021/03/19 09:22:18;;;;;;;;;;;20.50;54.20;;;;;;5070818;28;1398;-68
2021/03/19 09:24:46;;;;;;;;;;;20.50;54.20;;;;;;5074186;28;1272;-68
2021/03/19 09:27:34;;;;;;;;;;;20.50;54.30;;;;;;5074962;28;1335;-69
2021/03/19 09:30:26;;;;;;;;;;;20.50;54.30;;;;;;5075165;28;1985;-70
2021/03/19 09:32:52;;;;;;;;;;;20.50;54.30;;;;;;5093934;28;1323;-69
2021/03/19 09:35:38;;;;;;;;;;;20.40;54.30;;;;;;5094248;28;1438;-71
2021/03/19 09:38:13;;;;;;;;;;;20.50;54.40;;;;;;5093000;28;1329;-68
2021/03/19 09:40:42;;;;;;;;;;;20.50;54.40;;;;;;5094013;28;1247;-68
2021/03/19 09:43:09;;;;;;;;;;;20.50;54.40;;;;;;5081558;28;1449;-68
2021/03/19 09:45:35;;;;;;;;;;;20.40;54.40;;;;;;5094947;28;1265;-67
2021/03/19 09:48:09;;;;;;;;;;;20.40;54.40;;;;;;5075241;28;1795;-67
2021/03/19 09:50:34;;;;;;;;;;;20.40;54.40;;;;;;5070844;28;2242;-67
2021/03/19 09:53:01;;;;;;;;;;;20.40;54.40;;;;;;5062207;28;1926;-68
2021/03/19 09:55:35;;;;;;;;;;;20.40;54.40;;;;;;5077477;28;1645;-68
2021/03/19 09:58:15;;;;;;;;;;;20.40;54.40;;;;;;5061237;28;1502;-68
2021/03/19 10:00:45;;;;;;;;;;;20.40;54.50;;;;;;5073314;28;1634;-68
2021/03/19 10:03:11;;;;;;;;;;;20.40;54.50;;;;;;5078588;28;1522;-68
2021/03/19 10:05:37;;;;;;;;;;;20.40;54.60;;;;;;5093299;28;1699;-68
2021/03/19 10:08:03;;;;;;;;;;;20.30;54.50;;;;;;5074911;28;1652;-68
2021/03/19 10:10:30;;;;;;;;;;;20.30;54.60;;;;;;5093555;28;1969;-68
2021/03/19 10:13:09;;;;;;;;;;;20.30;54.60;;;;;;5092662;28;1606;-68
2021/03/19 10:15:35;;;;;;;;;;;20.30;54.60;;;;;;5092909;28;1629;-67
2021/03/19 10:18:01;;;;;;;;;;;20.30;54.70;;;;;;5087757;28;1217;-67
2021/03/19 10:20:27;;;;;;;;;;;20.30;54.70;;;;;;5073432;28;1723;-68
2021/03/19 10:23:07;;;;;;;;;;;20.30;54.70;;;;;;5064229;28;1572;-68
2021/03/19 10:25:34;;;;;;;;;;;20.30;54.70;;;;;;5066495;28;1654;-68
2021/03/19 10:28:00;;;;;;;;;;;20.30;54.70;;;;;;5079498;28;1577;-68
2021/03/19 10:30:31;;;;;;;;;;;20.20;54.70;;;;;;5071184;28;1898;-68
2021/03/19 10:32:57;;;;;;;;;;;20.20;54.80;;;;;;5080746;28;1541;-68
2021/03/19 10:35:27;;;;;;;;;;;20.20;54.80;;;;;;5068420;28;1260;-68
2021/03/19 10:37:53;;;;;;;;;;;20.20;54.70;;;;;;5068492;28;1880;-68
2021/03/19 10:40:33;;;;;;;;;;;20.20;54.70;;;;;;5071282;28;1322;-69
2021/03/19 10:43:01;;;;;;;;;;;20.20;54.80;;;;;;5070463;28;1613;-68
2021/03/19 10:45:50;;;;;;;;;;;20.20;54.80;;;;;;5069855;28;1408;-68
2021/03/19 10:48:21;;;;;;;;;;;20.20;54.80;;;;;;5087059;28;1585;-68
2021/03/19 10:51:04;;;;;;;;;;;20.20;54.80;;;;;;5090722;28;1972;-68
2021/03/19 10:53:38;;;;;;;;;;;20.20;54.80;;;;;;5063494;28;1348;-68
2021/03/19 10:56:03;;;;;;;;;;;20.20;54.80;;;;;;5072716;28;1337;-68
2021/03/19 10:58:34;;;;;;;;;;;20.20;54.80;;;;;;5071216;28;1352;-68
2021/03/19 11:00:59;;;;;;;;;;;20.20;54.80;;;;;;5069433;28;1238;-68
2021/03/19 11:03:31;;;;;;;;;;;20.10;54.80;;;;;;5069032;28;1227;-68
2021/03/19 11:05:56;;;;;;;;;;;20.20;54.80;;;;;;5071563;28;1325;-68
2021/03/19 11:08:22;;;;;;;;;;;20.20;54.80;;;;;;5068954;28;1388;-68
2021/03/19 11:10:49;;;;;;;;;;;20.20;54.80;;;;;;5068808;28;1906;-68
2021/03/19 11:13:15;;;;;;;;;;;20.20;54.90;;;;;;5069214;28;1321;-68
2021/03/19 11:15:41;;;;;;;;;;;20.20;54.90;;;;;;5070030;28;960;-68
2021/03/19 11:18:17;;;;;;;;;;;20.20;54.90;;;;;;5064694;28;1317;-68
2021/03/19 11:20:44;;;;;;;;;;;20.20;54.80;;;;;;5057625;28;1255;-68
2021/03/19 11:23:36;;;;;;;;;;;20.20;54.90;;;;;;5070429;28;1375;-68
2021/03/19 11:26:20;;;;;;;;;;;20.20;54.90;;;;;;5068949;28;1122;-68
2021/03/19 11:28:45;;;;;;;;;;;20.20;54.90;;;;;;5068158;28;1370;-68
2021/03/19 11:31:15;;;;;;;;;;;20.20;54.90;;;;;;5067976;28;1921;-68
2021/03/19 11:33:51;;;;;;;;;;;20.10;54.90;;;;;;5064724;28;1299;-68
2021/03/19 11:36:16;;;;;;;;;;;20.20;54.90;;;;;;5080035;28;1419;-68
2021/03/19 11:38:41;;;;;;;;;;;20.20;54.90;;;;;;5081516;28;1952;-68
2021/03/19 11:41:26;;;;;;;;;;;20.10;54.80;;;;;;5061147;28;1707;-68
2021/03/19 11:43:51;;;;;;;;;;;20.10;54.90;;;;;;5069632;28;1506;-68
2021/03/19 11:46:16;;;;;;;;;;;20.10;54.90;;;;;;5076286;28;1407;-68
2021/03/19 11:48:43;;;;;;;;;;;20.10;54.80;;;;;;5084412;28;1886;-68
2021/03/19 11:51:09;;;;;;;;;;;20.10;54.90;;;;;;5064776;28;1906;-68
2021/03/19 11:53:34;;;;;;;;;;;20.10;54.90;;;;;;5062880;28;1098;-68
2021/03/19 11:56:00;;;;;;;;;;;20.10;54.90;;;;;;5074157;28;1075;-68
2021/03/19 11:58:26;;;;;;;;;;;20.10;54.90;;;;;;5059575;28;1773;-68
2021/03/19 12:00:52;;;;;;;;;;;20.10;54.90;;;;;;5065618;28;1360;-68
2021/03/19 12:03:36;;;;;;;;;;;20.10;54.90;;;;;;5080090;28;1137;-68
2021/03/19 12:06:02;;;;;;;;;;;20.10;54.90;;;;;;5078448;28;1247;-69
2021/03/19 12:08:28;;;;;;;;;;;20.10;54.90;;;;;;5075069;28;1167;-69
2021/03/19 12:10:54;;;;;;;;;;;20.20;54.90;;;;;;5072304;28;1898;-68
2021/03/19 12:13:19;;;;;;;;;;;20.10;54.90;;;;;;5066897;28;1218;-69
2021/03/19 12:15:45;;;;;;;;;;;20.10;54.90;;;;;;5065516;28;1045;-69
2021/03/19 12:18:11;;;;;;;;;;;20.10;54.90;;;;;;5064980;28;1152;-68
2021/03/19 12:20:36;;;;;;;;;;;20.10;54.90;;;;;;5078611;28;1215;-67
2021/03/19 12:23:01;;;;;;;;;;;20.10;54.90;;;;;;5064128;28;1276;-68
2021/03/19 12:25:28;;;;;;;;;;;20.10;54.90;;;;;;5078491;28;1049;-68
2021/03/19 12:27:54;;;;;;;;;;;20.10;54.90;;;;;;5067657;28;1335;-67
2021/03/19 12:30:19;;;;;;;;;;;20.10;54.90;;;;;;5066394;28;1938;-67
2021/03/19 12:32:45;;;;;;;;;;;20.10;54.90;;;;;;5065931;28;1565;-67
2021/03/19 12:35:10;;;;;;;;;;;20.10;54.90;;;;;;5078828;28;1361;-68
2021/03/19 12:37:36;;;;;;;;;;;20.10;54.90;;;;;;5071042;28;1517;-67
2021/03/19 12:40:02;;;;;;;;;;;20.10;54.90;;;;;;5087120;28;1364;-67
2021/03/19 12:42:27;;;;;;;;;;;20.10;54.90;;;;;;5085074;28;1638;-67
2021/03/19 12:44:53;;;;;;;;;;;20.10;54.90;;;;;;5068795;28;1869;-67
2021/03/19 12:47:18;;;;;;;;;;;20.10;54.90;;;;;;5072581;28;1422;-68
2021/03/19 12:49:44;;;;;;;;;;;20.10;54.90;;;;;;5071758;28;1955;-68
2021/03/19 12:52:09;;;;;;;;;;;20.10;54.90;;;;;;5076272;28;1419;-67
2021/03/19 12:54:34;;;;;;;;;;;20.10;54.90;;;;;;5062870;28;1247;-67
2021/03/19 12:57:00;;;;;;;;;;;20.10;54.80;;;;;;5067270;28;972;-68
2021/03/19 12:59:26;;;;;;;;;;;20.20;54.80;;;;;;5073908;28;1247;-68
2021/03/19 13:01:52;;;;;;;;;;;20.30;54.70;;;;;;5073858;28;1279;-67
2021/03/19 13:04:17;;;;;;;;;;;20.40;54.50;;;;;;5068819;28;1988;-69
2021/03/19 13:06:42;;;;;;;;;;;20.50;54.30;;;;;;5071603;28;1219;-68
2021/03/19 13:09:13;;;;;;;;;;;20.60;54.10;;;;;;5082264;28;1048;-69
2021/03/19 13:11:39;;;;;;;;;;;20.70;53.90;;;;;;5094827;28;1965;-69
2021/03/19 13:14:04;;;;;;;;;;;20.80;53.70;;;;;;5094953;28;1367;-68
2021/03/19 13:16:30;;;;;;;;;;;20.80;53.40;;;;;;5094200;28;1112;-67
2021/03/19 13:18:55;;;;;;;;;;;20.90;53.20;;;;;;5081832;28;1279;-69
2021/03/19 13:21:21;;;;;;;;;;;21.00;53.70;;;;;;5074279;28;1353;-67
2021/03/19 13:23:47;;;;;;;;;;;21.10;53.00;;;;;;5074551;28;1274;-67
2021/03/19 13:26:12;;;;;;;;;;;21.10;52.80;;;;;;5072661;28;1290;-68
2021/03/19 13:28:38;;;;;;;;;;;21.20;52.70;;;;;;5073441;28;1230;-67
2021/03/19 13:31:03;;;;;;;;;;;21.20;52.60;;;;;;5073497;28;1965;-67
2021/03/19 13:33:29;;;;;;;;;;;21.30;52.60;;;;;;5071057;28;1545;-67
2021/03/19 13:35:55;;;;;;;;;;;21.30;52.50;;;;;;5093795;28;1055;-67
2021/03/19 13:38:21;;;;;;;;;;;21.30;52.40;;;;;;5093599;28;1066;-67
2021/03/19 13:40:47;;;;;;;;;;;21.30;52.30;;;;;;5093146;28;1221;-68
2021/03/19 13:43:13;;;;;;;;;;;21.30;52.30;;;;;;5092746;28;1311;-67
2021/03/19 13:45:38;;;;;;;;;;;21.40;52.40;;;;;;5093737;28;1355;-67
2021/03/19 13:48:04;;;;;;;;;;;21.30;52.30;;;;;;5091991;28;1260;-67
2021/03/19 13:50:30;;;;;;;;;;;21.30;52.30;;;;;;5094151;28;1906;-67
2021/03/19 13:52:56;;;;;;;;;;;21.30;52.30;;;;;;5094045;28;1351;-68
2021/03/19 13:55:22;;;;;;;;;;;21.30;52.30;;;;;;5093825;28;1335;-68
2021/03/19 13:57:48;;;;;;;;;;;21.30;52.30;;;;;;5074021;28;1054;-68
2021/03/19 14:00:18;;;;;;;;;;;21.30;52.40;;;;;;5073553;28;1384;-68
2021/03/19 14:02:44;;;;;;;;;;;21.30;52.50;;;;;;5075007;28;1361;-69
2021/03/19 14:05:09;;;;;;;;;;;21.30;52.50;;;;;;5093936;28;1634;-69
2021/03/19 14:07:35;;;;;;;;;;;21.30;52.50;;;;;;5091098;28;1344;-69
2021/03/19 14:10:00;;;;;;;;;;;21.30;52.50;;;;;;5093649;28;2409;-69
2021/03/19 14:12:26;;;;;;;;;;;21.30;52.60;;;;;;5093677;28;1323;-70
2021/03/19 14:14:51;;;;;;;;;;;21.30;52.60;;;;;;5092660;28;1259;-68
2021/03/19 14:17:17;;;;;;;;;;;21.20;52.60;;;;;;5091362;28;1109;-69
2021/03/19 14:19:42;;;;;;;;;;;21.20;52.60;;;;;;5075055;28;1249;-68
2021/03/19 14:22:08;;;;;;;;;;;21.20;52.70;;;;;;5072663;28;1256;-69
2021/03/19 14:24:34;;;;;;;;;;;21.20;52.70;;;;;;5073068;28;1284;-69
2021/03/19 14:26:59;;;;;;;;;;;21.20;52.80;;;;;;5072624;28;1033;-69
2021/03/19 14:29:24;;;;;;;;;;;21.10;52.80;;;;;;5072340;28;1943;-69
2021/03/19 14:31:50;;;;;;;;;;;21.10;52.80;;;;;;5072848;28;1244;-69
2021/03/19 14:34:15;;;;;;;;;;;21.10;52.90;;;;;;5063771;28;1345;-69
2021/03/19 14:36:41;;;;;;;;;;;21.10;52.90;;;;;;5071823;28;1305;-68
2021/03/19 14:39:06;;;;;;;;;;;21.10;52.90;;;;;;5071837;28;1017;-68
2021/03/19 14:41:32;;;;;;;;;;;21.10;53.00;;;;;;5069315;28;1308;-68
2021/03/19 14:43:57;;;;;;;;;;;21.10;53.00;;;;;;5068041;28;1403;-69